sensor_id;sensor_type;location;lat;lon;timestamp;P1;durP1;ratioP1;P2;durP2;ratioP2
53389;SDS011;39288;42.970;1.524;2023-03-23T00:00:33;4.95;;;2.67;;
53389;SDS011;39288;42.970;1.524;2023-03-23T00:01:38;5.28;;;3.33;;
53389;SDS011;39288;42.970;1.524;2023-03-23T00:02:41;4.82;;;2.55;;
53389;SDS011;39288;42.970;1.524;2023-03-23T00:03:44;9.05;;;7.40;;
53389;SDS011;39288;42.970;1.524;2023-03-23T00:04:46;8.73;;;5.45;;
53389;SDS011;39288;42.970;1.524;2023-03-23T00:05:50;7.30;;;4.90;;
53389;SDS011;39288;42.970;1.524;2023-03-23T00:06:54;5.72;;;3.67;;
53389;SDS011;39288;42.970;1.524;2023-03-23T00:07:57;5.75;;;3.28;;
53389;SDS011;39288;42.970;1.524;2023-03-23T00:09:02;5.78;;;3.10;;
53389;SDS011;39288;42.970;1.524;2023-03-23T00:10:03;4.28;;;2.88;;
53389;SDS011;39288;42.970;1.524;2023-03-23T00:11:04;4.05;;;2.78;;
53389;SDS011;39288;42.970;1.524;2023-03-23T00:12:05;5.17;;;2.80;;
53389;SDS011;39288;42.970;1.524;2023-03-23T00:13:05;4.40;;;3.13;;
53389;SDS011;39288;42.970;1.524;2023-03-23T00:14:06;8.57;;;3.33;;
53389;SDS011;39288;42.970;1.524;2023-03-23T00:15:13;4.85;;;2.67;;
53389;SDS011;39288;42.970;1.524;2023-03-23T00:16:17;5.97;;;3.58;;
53389;SDS011;39288;42.970;1.524;2023-03-23T00:18:19;5.18;;;3.05;;
53389;SDS011;39288;42.970;1.524;2023-03-23T00:19:23;6.35;;;2.97;;
53389;SDS011;39288;42.970;1.524;2023-03-23T00:20:24;7.57;;;3.20;;
53389;SDS011;39288;42.970;1.524;2023-03-23T00:21:26;6.47;;;3.40;;
53389;SDS011;39288;42.970;1.524;2023-03-23T00:22:34;7.07;;;2.88;;
53389;SDS011;39288;42.970;1.524;2023-03-23T00:23:37;6.18;;;4.00;;
53389;SDS011;39288;42.970;1.524;2023-03-23T00:24:39;4.35;;;3.22;;
53389;SDS011;39288;42.970;1.524;2023-03-23T00:25:40;7.43;;;3.63;;
53389;SDS011;39288;42.970;1.524;2023-03-23T00:26:40;5.57;;;3.40;;
53389;SDS011;39288;42.970;1.524;2023-03-23T00:27:43;6.28;;;3.40;;
53389;SDS011;39288;42.970;1.524;2023-03-23T00:28:44;5.63;;;3.20;;
53389;SDS011;39288;42.970;1.524;2023-03-23T00:29:46;6.85;;;3.50;;
53389;SDS011;39288;42.970;1.524;2023-03-23T00:30:47;9.60;;;3.97;;
53389;SDS011;39288;42.970;1.524;2023-03-23T00:31:48;4.30;;;3.00;;
53389;SDS011;39288;42.970;1.524;2023-03-23T00:32:48;4.80;;;3.53;;
53389;SDS011;39288;42.970;1.524;2023-03-23T00:33:50;5.95;;;3.28;;
53389;SDS011;39288;42.970;1.524;2023-03-23T00:34:51;6.80;;;3.57;;
53389;SDS011;39288;42.970;1.524;2023-03-23T00:35:51;6.63;;;2.93;;
53389;SDS011;39288;42.970;1.524;2023-03-23T00:36:53;6.00;;;3.50;;
53389;SDS011;39288;42.970;1.524;2023-03-23T00:37:57;5.80;;;2.67;;
53389;SDS011;39288;42.970;1.524;2023-03-23T00:38:58;5.82;;;3.25;;
53389;SDS011;39288;42.970;1.524;2023-03-23T00:39:59;5.77;;;3.00;;
53389;SDS011;39288;42.970;1.524;2023-03-23T00:41:00;6.03;;;3.30;;
53389;SDS011;39288;42.970;1.524;2023-03-23T00:42:03;7.43;;;3.83;;
53389;SDS011;39288;42.970;1.524;2023-03-23T00:43:04;9.52;;;3.50;;
53389;SDS011;39288;42.970;1.524;2023-03-23T00:44:04;6.57;;;3.87;;
53389;SDS011;39288;42.970;1.524;2023-03-23T00:45:05;8.27;;;3.13;;
53389;SDS011;39288;42.970;1.524;2023-03-23T00:46:10;6.65;;;3.75;;
53389;SDS011;39288;42.970;1.524;2023-03-23T00:47:11;4.73;;;3.43;;
53389;SDS011;39288;42.970;1.524;2023-03-23T00:48:11;5.50;;;3.63;;
53389;SDS011;39288;42.970;1.524;2023-03-23T00:49:19;5.68;;;3.28;;
53389;SDS011;39288;42.970;1.524;2023-03-23T00:50:24;7.53;;;3.70;;
53389;SDS011;39288;42.970;1.524;2023-03-23T00:51:24;5.77;;;3.40;;
53389;SDS011;39288;42.970;1.524;2023-03-23T00:52:25;5.93;;;3.40;;
53389;SDS011;39288;42.970;1.524;2023-03-23T00:53:25;8.57;;;3.70;;
53389;SDS011;39288;42.970;1.524;2023-03-23T00:54:26;9.57;;;3.73;;
53389;SDS011;39288;42.970;1.524;2023-03-23T00:55:27;4.80;;;3.20;;
53389;SDS011;39288;42.970;1.524;2023-03-23T00:56:28;7.13;;;3.27;;
53389;SDS011;39288;42.970;1.524;2023-03-23T00:57:28;7.47;;;3.17;;
53389;SDS011;39288;42.970;1.524;2023-03-23T00:58:28;6.67;;;3.80;;
53389;SDS011;39288;42.970;1.524;2023-03-23T00:59:31;5.73;;;4.07;;
53389;SDS011;39288;42.970;1.524;2023-03-23T01:00:32;6.32;;;3.60;;
53389;SDS011;39288;42.970;1.524;2023-03-23T01:01:33;8.20;;;4.37;;
53389;SDS011;39288;42.970;1.524;2023-03-23T01:02:34;7.20;;;4.03;;
53389;SDS011;39288;42.970;1.524;2023-03-23T01:03:35;6.05;;;3.72;;
53389;SDS011;39288;42.970;1.524;2023-03-23T01:04:38;5.17;;;3.50;;
53389;SDS011;39288;42.970;1.524;2023-03-23T01:05:39;5.65;;;3.35;;
53389;SDS011;39288;42.970;1.524;2023-03-23T01:06:40;6.87;;;3.93;;
53389;SDS011;39288;42.970;1.524;2023-03-23T01:07:42;6.85;;;3.60;;
53389;SDS011;39288;42.970;1.524;2023-03-23T01:08:44;5.88;;;3.58;;
53389;SDS011;39288;42.970;1.524;2023-03-23T01:09:48;8.43;;;3.67;;
53389;SDS011;39288;42.970;1.524;2023-03-23T01:10:49;7.53;;;4.10;;
53389;SDS011;39288;42.970;1.524;2023-03-23T01:11:53;6.43;;;3.90;;
53389;SDS011;39288;42.970;1.524;2023-03-23T01:12:55;7.97;;;4.30;;
53389;SDS011;39288;42.970;1.524;2023-03-23T01:13:55;6.33;;;3.67;;
53389;SDS011;39288;42.970;1.524;2023-03-23T01:14:56;8.03;;;3.77;;
53389;SDS011;39288;42.970;1.524;2023-03-23T01:15:56;7.03;;;3.27;;
53389;SDS011;39288;42.970;1.524;2023-03-23T01:16:57;12.97;;;3.73;;
53389;SDS011;39288;42.970;1.524;2023-03-23T01:17:57;5.73;;;4.10;;
53389;SDS011;39288;42.970;1.524;2023-03-23T01:18:58;7.07;;;3.13;;
53389;SDS011;39288;42.970;1.524;2023-03-23T01:19:58;6.03;;;3.63;;
53389;SDS011;39288;42.970;1.524;2023-03-23T01:21:03;7.00;;;3.40;;
53389;SDS011;39288;42.970;1.524;2023-03-23T01:22:13;5.43;;;3.15;;
53389;SDS011;39288;42.970;1.524;2023-03-23T01:23:14;5.40;;;3.33;;
53389;SDS011;39288;42.970;1.524;2023-03-23T01:24:15;5.73;;;3.23;;
53389;SDS011;39288;42.970;1.524;2023-03-23T01:25:15;8.83;;;3.90;;
53389;SDS011;39288;42.970;1.524;2023-03-23T01:26:17;6.07;;;3.67;;
53389;SDS011;39288;42.970;1.524;2023-03-23T01:27:20;8.70;;;3.88;;
53389;SDS011;39288;42.970;1.524;2023-03-23T01:28:20;5.87;;;3.27;;
53389;SDS011;39288;42.970;1.524;2023-03-23T01:29:20;9.23;;;3.60;;
53389;SDS011;39288;42.970;1.524;2023-03-23T01:30:21;4.57;;;3.43;;
53389;SDS011;39288;42.970;1.524;2023-03-23T01:31:23;6.47;;;3.73;;
53389;SDS011;39288;42.970;1.524;2023-03-23T01:32:24;5.95;;;3.38;;
53389;SDS011;39288;42.970;1.524;2023-03-23T01:33:25;7.80;;;3.57;;
53389;SDS011;39288;42.970;1.524;2023-03-23T01:34:25;4.43;;;2.87;;
53389;SDS011;39288;42.970;1.524;2023-03-23T01:35:26;5.13;;;3.27;;
53389;SDS011;39288;42.970;1.524;2023-03-23T01:36:27;4.87;;;3.23;;
53389;SDS011;39288;42.970;1.524;2023-03-23T01:37:32;7.65;;;3.47;;
53389;SDS011;39288;42.970;1.524;2023-03-23T01:38:33;7.20;;;3.53;;
53389;SDS011;39288;42.970;1.524;2023-03-23T01:39:37;6.20;;;3.05;;
53389;SDS011;39288;42.970;1.524;2023-03-23T01:40:38;6.80;;;3.60;;
53389;SDS011;39288;42.970;1.524;2023-03-23T01:41:38;5.77;;;3.10;;
53389;SDS011;39288;42.970;1.524;2023-03-23T01:42:40;6.50;;;3.28;;
53389;SDS011;39288;42.970;1.524;2023-03-23T01:46:28;6.00;;;3.17;;
53389;SDS011;39288;42.970;1.524;2023-03-23T01:47:33;5.18;;;3.05;;
53389;SDS011;39288;42.970;1.524;2023-03-23T01:48:34;5.63;;;2.90;;
53389;SDS011;39288;42.970;1.524;2023-03-23T01:49:37;6.03;;;3.03;;
53389;SDS011;39288;42.970;1.524;2023-03-23T01:51:53;5.00;;;2.70;;
53389;SDS011;39288;42.970;1.524;2023-03-23T01:52:56;7.20;;;3.20;;
53389;SDS011;39288;42.970;1.524;2023-03-23T01:53:58;5.07;;;3.10;;
53389;SDS011;39288;42.970;1.524;2023-03-23T01:55:02;6.22;;;4.05;;
53389;SDS011;39288;42.970;1.524;2023-03-23T01:56:06;5.68;;;3.83;;
53389;SDS011;39288;42.970;1.524;2023-03-23T01:57:14;5.05;;;3.70;;
53389;SDS011;39288;42.970;1.524;2023-03-23T01:58:17;5.40;;;3.22;;
53389;SDS011;39288;42.970;1.524;2023-03-23T01:59:19;7.50;;;3.55;;
53389;SDS011;39288;42.970;1.524;2023-03-23T02:00:21;5.95;;;3.00;;
53389;SDS011;39288;42.970;1.524;2023-03-23T02:01:22;6.30;;;3.13;;
53389;SDS011;39288;42.970;1.524;2023-03-23T02:02:24;4.82;;;2.58;;
53389;SDS011;39288;42.970;1.524;2023-03-23T02:03:29;5.00;;;2.60;;
53389;SDS011;39288;42.970;1.524;2023-03-23T02:04:31;6.97;;;2.72;;
53389;SDS011;39288;42.970;1.524;2023-03-23T02:05:34;8.63;;;3.20;;
53389;SDS011;39288;42.970;1.524;2023-03-23T02:06:38;6.93;;;2.70;;
53389;SDS011;39288;42.970;1.524;2023-03-23T02:07:38;4.70;;;2.40;;
53389;SDS011;39288;42.970;1.524;2023-03-23T02:08:39;4.33;;;2.63;;
53389;SDS011;39288;42.970;1.524;2023-03-23T02:09:43;4.70;;;2.50;;
53389;SDS011;39288;42.970;1.524;2023-03-23T02:10:43;3.83;;;2.63;;
53389;SDS011;39288;42.970;1.524;2023-03-23T02:11:45;4.30;;;2.80;;
53389;SDS011;39288;42.970;1.524;2023-03-23T02:13:47;4.22;;;2.90;;
53389;SDS011;39288;42.970;1.524;2023-03-23T02:18:57;7.15;;;2.35;;
53389;SDS011;39288;42.970;1.524;2023-03-23T02:27:01;4.60;;;2.95;;
53389;SDS011;39288;42.970;1.524;2023-03-23T02:30:43;3.92;;;2.35;;
53389;SDS011;39288;42.970;1.524;2023-03-23T02:34:31;5.00;;;2.58;;
53389;SDS011;39288;42.970;1.524;2023-03-23T02:37:03;5.85;;;3.35;;
53389;SDS011;39288;42.970;1.524;2023-03-23T02:38:08;4.05;;;3.00;;
53389;SDS011;39288;42.970;1.524;2023-03-23T02:39:15;8.80;;;4.07;;
53389;SDS011;39288;42.970;1.524;2023-03-23T02:40:21;5.43;;;3.42;;
53389;SDS011;39288;42.970;1.524;2023-03-23T02:41:27;6.15;;;3.08;;
53389;SDS011;39288;42.970;1.524;2023-03-23T02:42:30;5.22;;;2.80;;
53389;SDS011;39288;42.970;1.524;2023-03-23T02:43:38;6.07;;;2.70;;
53389;SDS011;39288;42.970;1.524;2023-03-23T02:44:41;4.05;;;2.53;;
53389;SDS011;39288;42.970;1.524;2023-03-23T02:45:44;4.13;;;2.58;;
53389;SDS011;39288;42.970;1.524;2023-03-23T02:46:45;3.25;;;2.20;;
53389;SDS011;39288;42.970;1.524;2023-03-23T02:47:47;7.38;;;2.30;;
53389;SDS011;39288;42.970;1.524;2023-03-23T02:48:49;3.50;;;2.28;;
53389;SDS011;39288;42.970;1.524;2023-03-23T02:49:52;3.58;;;2.58;;
53389;SDS011;39288;42.970;1.524;2023-03-23T02:50:56;4.15;;;2.30;;
53389;SDS011;39288;42.970;1.524;2023-03-23T02:51:58;4.03;;;2.20;;
53389;SDS011;39288;42.970;1.524;2023-03-23T02:53:00;4.22;;;2.33;;
53389;SDS011;39288;42.970;1.524;2023-03-23T02:54:01;3.67;;;2.08;;
53389;SDS011;39288;42.970;1.524;2023-03-23T02:55:03;3.05;;;2.17;;
53389;SDS011;39288;42.970;1.524;2023-03-23T02:56:04;4.53;;;2.30;;
53389;SDS011;39288;42.970;1.524;2023-03-23T02:57:06;5.22;;;2.30;;
53389;SDS011;39288;42.970;1.524;2023-03-23T02:58:08;5.10;;;2.10;;
53389;SDS011;39288;42.970;1.524;2023-03-23T02:59:09;6.18;;;2.50;;
53389;SDS011;39288;42.970;1.524;2023-03-23T03:00:13;6.07;;;2.43;;
53389;SDS011;39288;42.970;1.524;2023-03-23T03:02:37;3.10;;;2.33;;
53389;SDS011;39288;42.970;1.524;2023-03-23T03:03:40;4.90;;;2.25;;
53389;SDS011;39288;42.970;1.524;2023-03-23T03:04:41;4.27;;;2.20;;
53389;SDS011;39288;42.970;1.524;2023-03-23T03:07:32;5.82;;;2.20;;
53389;SDS011;39288;42.970;1.524;2023-03-23T03:09:49;5.03;;;2.28;;
53389;SDS011;39288;42.970;1.524;2023-03-23T03:11:06;3.92;;;2.08;;
53389;SDS011;39288;42.970;1.524;2023-03-23T03:12:11;6.10;;;2.30;;
53389;SDS011;39288;42.970;1.524;2023-03-23T03:14:35;4.22;;;2.05;;
53389;SDS011;39288;42.970;1.524;2023-03-23T03:15:43;2.70;;;1.90;;
53389;SDS011;39288;42.970;1.524;2023-03-23T03:17:51;6.82;;;1.90;;
53389;SDS011;39288;42.970;1.524;2023-03-23T03:19:59;9.05;;;2.15;;
53389;SDS011;39288;42.970;1.524;2023-03-23T03:22:13;4.15;;;2.25;;
53389;SDS011;39288;42.970;1.524;2023-03-23T03:23:13;5.55;;;2.65;;
53389;SDS011;39288;42.970;1.524;2023-03-23T03:24:17;5.78;;;2.35;;
53389;SDS011;39288;42.970;1.524;2023-03-23T03:25:19;3.22;;;1.92;;
53389;SDS011;39288;42.970;1.524;2023-03-23T03:26:19;2.70;;;2.00;;
53389;SDS011;39288;42.970;1.524;2023-03-23T03:27:20;4.90;;;2.07;;
53389;SDS011;39288;42.970;1.524;2023-03-23T03:28:23;3.33;;;1.80;;
53389;SDS011;39288;42.970;1.524;2023-03-23T03:29:25;6.70;;;2.08;;
53389;SDS011;39288;42.970;1.524;2023-03-23T03:30:30;4.35;;;2.08;;
53389;SDS011;39288;42.970;1.524;2023-03-23T03:31:34;3.03;;;2.10;;
53389;SDS011;39288;42.970;1.524;2023-03-23T03:32:41;3.05;;;1.90;;
53389;SDS011;39288;42.970;1.524;2023-03-23T03:33:46;4.18;;;2.28;;
53389;SDS011;39288;42.970;1.524;2023-03-23T03:34:47;2.60;;;1.87;;
53389;SDS011;39288;42.970;1.524;2023-03-23T03:35:47;4.13;;;2.07;;
53389;SDS011;39288;42.970;1.524;2023-03-23T03:36:48;7.37;;;2.20;;
53389;SDS011;39288;42.970;1.524;2023-03-23T03:37:50;2.72;;;1.88;;
53389;SDS011;39288;42.970;1.524;2023-03-23T03:38:51;4.07;;;2.47;;
53389;SDS011;39288;42.970;1.524;2023-03-23T03:39:52;2.90;;;2.50;;
53389;SDS011;39288;42.970;1.524;2023-03-23T03:40:54;5.07;;;1.83;;
53389;SDS011;39288;42.970;1.524;2023-03-23T03:41:56;5.80;;;2.53;;
53389;SDS011;39288;42.970;1.524;2023-03-23T03:42:56;3.60;;;2.30;;
53389;SDS011;39288;42.970;1.524;2023-03-23T03:43:57;3.83;;;1.90;;
53389;SDS011;39288;42.970;1.524;2023-03-23T03:44:57;4.50;;;2.70;;
53389;SDS011;39288;42.970;1.524;2023-03-23T03:45:57;3.80;;;2.07;;
53389;SDS011;39288;42.970;1.524;2023-03-23T03:46:58;4.40;;;2.00;;
53389;SDS011;39288;42.970;1.524;2023-03-23T03:47:58;2.77;;;1.80;;
53389;SDS011;39288;42.970;1.524;2023-03-23T03:49:00;4.70;;;1.90;;
53389;SDS011;39288;42.970;1.524;2023-03-23T03:50:02;4.38;;;2.08;;
53389;SDS011;39288;42.970;1.524;2023-03-23T03:51:03;3.25;;;2.17;;
53389;SDS011;39288;42.970;1.524;2023-03-23T03:52:04;4.80;;;2.25;;
53389;SDS011;39288;42.970;1.524;2023-03-23T03:53:08;3.47;;;2.00;;
53389;SDS011;39288;42.970;1.524;2023-03-23T03:54:08;3.27;;;1.90;;
53389;SDS011;39288;42.970;1.524;2023-03-23T03:55:09;5.10;;;1.93;;
53389;SDS011;39288;42.970;1.524;2023-03-23T03:56:10;4.15;;;1.83;;
53389;SDS011;39288;42.970;1.524;2023-03-23T03:57:11;13.23;;;2.43;;
53389;SDS011;39288;42.970;1.524;2023-03-23T03:58:11;5.40;;;1.87;;
53389;SDS011;39288;42.970;1.524;2023-03-23T03:59:12;2.28;;;1.67;;
53389;SDS011;39288;42.970;1.524;2023-03-23T04:00:13;3.00;;;1.87;;
53389;SDS011;39288;42.970;1.524;2023-03-23T04:01:15;8.07;;;2.10;;
53389;SDS011;39288;42.970;1.524;2023-03-23T04:02:17;4.65;;;1.95;;
53389;SDS011;39288;42.970;1.524;2023-03-23T04:03:20;3.15;;;1.55;;
53389;SDS011;39288;42.970;1.524;2023-03-23T04:04:20;2.73;;;1.60;;
53389;SDS011;39288;42.970;1.524;2023-03-23T04:05:22;5.90;;;1.70;;
53389;SDS011;39288;42.970;1.524;2023-03-23T04:06:23;5.25;;;1.90;;
53389;SDS011;39288;42.970;1.524;2023-03-23T04:07:27;2.95;;;1.60;;
53389;SDS011;39288;42.970;1.524;2023-03-23T04:08:29;2.05;;;1.80;;
53389;SDS011;39288;42.970;1.524;2023-03-23T04:09:30;3.90;;;1.88;;
53389;SDS011;39288;42.970;1.524;2023-03-23T04:10:31;7.40;;;2.17;;
53389;SDS011;39288;42.970;1.524;2023-03-23T04:11:32;4.27;;;1.97;;
53389;SDS011;39288;42.970;1.524;2023-03-23T04:12:33;3.00;;;1.83;;
53389;SDS011;39288;42.970;1.524;2023-03-23T04:13:34;3.08;;;2.03;;
53389;SDS011;39288;42.970;1.524;2023-03-23T04:14:34;3.00;;;1.90;;
53389;SDS011;39288;42.970;1.524;2023-03-23T04:15:35;4.70;;;1.83;;
53389;SDS011;39288;42.970;1.524;2023-03-23T04:16:35;6.07;;;2.17;;
53389;SDS011;39288;42.970;1.524;2023-03-23T04:17:36;2.57;;;1.73;;
53389;SDS011;39288;42.970;1.524;2023-03-23T04:18:38;2.83;;;1.63;;
53389;SDS011;39288;42.970;1.524;2023-03-23T04:19:38;3.53;;;1.98;;
53389;SDS011;39288;42.970;1.524;2023-03-23T04:20:39;6.00;;;1.90;;
53389;SDS011;39288;42.970;1.524;2023-03-23T04:21:39;3.07;;;1.73;;
53389;SDS011;39288;42.970;1.524;2023-03-23T04:22:40;4.80;;;1.90;;
53389;SDS011;39288;42.970;1.524;2023-03-23T04:23:43;2.60;;;2.05;;
53389;SDS011;39288;42.970;1.524;2023-03-23T04:24:44;2.70;;;1.93;;
53389;SDS011;39288;42.970;1.524;2023-03-23T04:25:45;3.67;;;2.20;;
53389;SDS011;39288;42.970;1.524;2023-03-23T04:26:47;3.70;;;1.90;;
53389;SDS011;39288;42.970;1.524;2023-03-23T04:27:48;4.47;;;2.20;;
53389;SDS011;39288;42.970;1.524;2023-03-23T04:28:52;4.22;;;2.15;;
53389;SDS011;39288;42.970;1.524;2023-03-23T04:29:54;3.50;;;1.87;;
53389;SDS011;39288;42.970;1.524;2023-03-23T04:30:59;3.15;;;1.92;;
53389;SDS011;39288;42.970;1.524;2023-03-23T04:32:00;3.65;;;2.20;;
53389;SDS011;39288;42.970;1.524;2023-03-23T04:33:01;3.10;;;2.15;;
53389;SDS011;39288;42.970;1.524;2023-03-23T04:34:02;3.47;;;2.20;;
53389;SDS011;39288;42.970;1.524;2023-03-23T04:35:03;9.85;;;2.13;;
53389;SDS011;39288;42.970;1.524;2023-03-23T04:36:05;2.88;;;1.63;;
53389;SDS011;39288;42.970;1.524;2023-03-23T04:37:06;5.20;;;2.10;;
53389;SDS011;39288;42.970;1.524;2023-03-23T04:39:09;2.83;;;1.80;;
53389;SDS011;39288;42.970;1.524;2023-03-23T04:40:12;4.20;;;2.20;;
53389;SDS011;39288;42.970;1.524;2023-03-23T04:41:14;6.80;;;3.35;;
53389;SDS011;39288;42.970;1.524;2023-03-23T04:42:14;8.43;;;3.57;;
53389;SDS011;39288;42.970;1.524;2023-03-23T04:43:15;9.37;;;3.23;;
53389;SDS011;39288;42.970;1.524;2023-03-23T04:44:15;6.70;;;3.10;;
53389;SDS011;39288;42.970;1.524;2023-03-23T04:45:20;7.50;;;3.10;;
53389;SDS011;39288;42.970;1.524;2023-03-23T04:46:25;6.43;;;3.05;;
53389;SDS011;39288;42.970;1.524;2023-03-23T04:47:30;9.88;;;3.40;;
53389;SDS011;39288;42.970;1.524;2023-03-23T04:48:32;5.55;;;3.00;;
53389;SDS011;39288;42.970;1.524;2023-03-23T04:49:33;5.93;;;2.75;;
53389;SDS011;39288;42.970;1.524;2023-03-23T04:50:34;5.20;;;2.43;;
53389;SDS011;39288;42.970;1.524;2023-03-23T04:51:35;7.07;;;2.83;;
53389;SDS011;39288;42.970;1.524;2023-03-23T04:52:36;5.07;;;2.50;;
53389;SDS011;39288;42.970;1.524;2023-03-23T04:53:37;4.78;;;2.35;;
53389;SDS011;39288;42.970;1.524;2023-03-23T04:54:38;3.87;;;2.40;;
53389;SDS011;39288;42.970;1.524;2023-03-23T04:55:39;5.10;;;2.67;;
53389;SDS011;39288;42.970;1.524;2023-03-23T04:56:41;4.20;;;2.42;;
53389;SDS011;39288;42.970;1.524;2023-03-23T04:57:41;4.57;;;2.60;;
53389;SDS011;39288;42.970;1.524;2023-03-23T04:58:41;4.57;;;2.27;;
53389;SDS011;39288;42.970;1.524;2023-03-23T05:00:44;3.80;;;1.92;;
53389;SDS011;39288;42.970;1.524;2023-03-23T05:01:49;4.78;;;2.10;;
53389;SDS011;39288;42.970;1.524;2023-03-23T05:02:49;3.40;;;2.20;;
53389;SDS011;39288;42.970;1.524;2023-03-23T05:03:51;3.35;;;2.40;;
53389;SDS011;39288;42.970;1.524;2023-03-23T05:04:51;3.80;;;2.40;;
53389;SDS011;39288;42.970;1.524;2023-03-23T05:05:52;5.50;;;2.47;;
53389;SDS011;39288;42.970;1.524;2023-03-23T05:06:53;10.40;;;3.07;;
53389;SDS011;39288;42.970;1.524;2023-03-23T05:07:53;5.07;;;2.30;;
53389;SDS011;39288;42.970;1.524;2023-03-23T05:08:54;8.87;;;2.63;;
53389;SDS011;39288;42.970;1.524;2023-03-23T05:09:54;4.77;;;2.20;;
53389;SDS011;39288;42.970;1.524;2023-03-23T05:10:56;2.77;;;1.70;;
53389;SDS011;39288;42.970;1.524;2023-03-23T05:11:57;3.55;;;2.35;;
53389;SDS011;39288;42.970;1.524;2023-03-23T05:12:59;3.65;;;2.50;;
53389;SDS011;39288;42.970;1.524;2023-03-23T05:14:00;4.87;;;2.60;;
53389;SDS011;39288;42.970;1.524;2023-03-23T05:15:00;4.33;;;1.90;;
53389;SDS011;39288;42.970;1.524;2023-03-23T05:16:04;5.47;;;2.07;;
53389;SDS011;39288;42.970;1.524;2023-03-23T05:17:10;4.75;;;2.03;;
53389;SDS011;39288;42.970;1.524;2023-03-23T05:18:10;6.03;;;2.17;;
53389;SDS011;39288;42.970;1.524;2023-03-23T05:19:11;3.43;;;1.90;;
53389;SDS011;39288;42.970;1.524;2023-03-23T05:20:13;3.03;;;2.10;;
53389;SDS011;39288;42.970;1.524;2023-03-23T05:21:14;3.47;;;1.70;;
53389;SDS011;39288;42.970;1.524;2023-03-23T05:22:15;4.33;;;1.77;;
53389;SDS011;39288;42.970;1.524;2023-03-23T05:23:15;2.90;;;2.20;;
53389;SDS011;39288;42.970;1.524;2023-03-23T05:24:18;2.63;;;1.80;;
53389;SDS011;39288;42.970;1.524;2023-03-23T05:25:19;7.90;;;2.80;;
53389;SDS011;39288;42.970;1.524;2023-03-23T05:26:20;4.33;;;2.00;;
53389;SDS011;39288;42.970;1.524;2023-03-23T05:27:21;4.38;;;1.92;;
53389;SDS011;39288;42.970;1.524;2023-03-23T05:28:22;3.73;;;2.13;;
53389;SDS011;39288;42.970;1.524;2023-03-23T05:29:22;3.33;;;1.80;;
53389;SDS011;39288;42.970;1.524;2023-03-23T05:30:24;4.38;;;2.13;;
53389;SDS011;39288;42.970;1.524;2023-03-23T05:31:25;3.50;;;1.98;;
53389;SDS011;39288;42.970;1.524;2023-03-23T05:32:25;4.93;;;1.80;;
53389;SDS011;39288;42.970;1.524;2023-03-23T05:33:29;3.80;;;2.00;;
53389;SDS011;39288;42.970;1.524;2023-03-23T05:34:29;3.30;;;2.03;;
53389;SDS011;39288;42.970;1.524;2023-03-23T05:35:32;8.23;;;2.20;;
53389;SDS011;39288;42.970;1.524;2023-03-23T05:36:33;2.37;;;1.80;;
53389;SDS011;39288;42.970;1.524;2023-03-23T05:37:34;2.67;;;1.90;;
53389;SDS011;39288;42.970;1.524;2023-03-23T05:38:34;5.73;;;1.73;;
53389;SDS011;39288;42.970;1.524;2023-03-23T05:39:36;2.40;;;1.90;;
53389;SDS011;39288;42.970;1.524;2023-03-23T05:40:36;3.17;;;2.23;;
53389;SDS011;39288;42.970;1.524;2023-03-23T05:41:38;3.83;;;1.97;;
53389;SDS011;39288;42.970;1.524;2023-03-23T05:42:39;3.90;;;2.10;;
53389;SDS011;39288;42.970;1.524;2023-03-23T05:43:45;5.13;;;2.20;;
53389;SDS011;39288;42.970;1.524;2023-03-23T05:44:46;3.97;;;2.10;;
53389;SDS011;39288;42.970;1.524;2023-03-23T05:45:47;4.85;;;2.38;;
53389;SDS011;39288;42.970;1.524;2023-03-23T05:46:47;4.13;;;2.30;;
53389;SDS011;39288;42.970;1.524;2023-03-23T05:47:48;7.53;;;2.20;;
53389;SDS011;39288;42.970;1.524;2023-03-23T05:48:48;3.40;;;2.33;;
53389;SDS011;39288;42.970;1.524;2023-03-23T05:49:49;4.03;;;2.63;;
53389;SDS011;39288;42.970;1.524;2023-03-23T05:50:49;4.83;;;1.90;;
53389;SDS011;39288;42.970;1.524;2023-03-23T05:51:50;3.57;;;2.30;;
53389;SDS011;39288;42.970;1.524;2023-03-23T05:52:51;2.47;;;1.80;;
53389;SDS011;39288;42.970;1.524;2023-03-23T05:53:52;3.43;;;2.00;;
53389;SDS011;39288;42.970;1.524;2023-03-23T05:54:52;3.43;;;2.17;;
53389;SDS011;39288;42.970;1.524;2023-03-23T05:55:57;4.10;;;2.00;;
53389;SDS011;39288;42.970;1.524;2023-03-23T05:56:58;3.72;;;1.80;;
53389;SDS011;39288;42.970;1.524;2023-03-23T05:57:59;4.03;;;2.10;;
53389;SDS011;39288;42.970;1.524;2023-03-23T05:59:03;2.50;;;1.80;;
53389;SDS011;39288;42.970;1.524;2023-03-23T06:00:07;3.23;;;2.00;;
53389;SDS011;39288;42.970;1.524;2023-03-23T06:01:19;4.28;;;1.80;;
53389;SDS011;39288;42.970;1.524;2023-03-23T06:02:20;3.63;;;1.90;;
53389;SDS011;39288;42.970;1.524;2023-03-23T06:03:21;3.23;;;1.93;;
53389;SDS011;39288;42.970;1.524;2023-03-23T06:04:22;5.20;;;2.53;;
53389;SDS011;39288;42.970;1.524;2023-03-23T06:05:24;4.13;;;2.10;;
53389;SDS011;39288;42.970;1.524;2023-03-23T06:06:26;3.72;;;1.85;;
53389;SDS011;39288;42.970;1.524;2023-03-23T06:07:26;4.83;;;1.70;;
53389;SDS011;39288;42.970;1.524;2023-03-23T06:08:27;3.43;;;1.97;;
53389;SDS011;39288;42.970;1.524;2023-03-23T06:09:27;3.60;;;1.93;;
53389;SDS011;39288;42.970;1.524;2023-03-23T06:10:28;3.13;;;2.10;;
53389;SDS011;39288;42.970;1.524;2023-03-23T06:11:28;9.03;;;2.50;;
53389;SDS011;39288;42.970;1.524;2023-03-23T06:12:29;2.90;;;1.87;;
53389;SDS011;39288;42.970;1.524;2023-03-23T06:13:30;2.43;;;1.77;;
53389;SDS011;39288;42.970;1.524;2023-03-23T06:14:31;2.67;;;1.70;;
53389;SDS011;39288;42.970;1.524;2023-03-23T06:15:32;3.65;;;2.08;;
53389;SDS011;39288;42.970;1.524;2023-03-23T06:16:32;4.17;;;2.10;;
53389;SDS011;39288;42.970;1.524;2023-03-23T06:17:33;3.33;;;1.67;;
53389;SDS011;39288;42.970;1.524;2023-03-23T06:18:34;3.50;;;2.13;;
53389;SDS011;39288;42.970;1.524;2023-03-23T06:20:37;5.68;;;2.00;;
53389;SDS011;39288;42.970;1.524;2023-03-23T06:21:37;2.90;;;2.13;;
53389;SDS011;39288;42.970;1.524;2023-03-23T06:22:38;5.03;;;2.60;;
53389;SDS011;39288;42.970;1.524;2023-03-23T06:23:39;3.35;;;1.90;;
53389;SDS011;39288;42.970;1.524;2023-03-23T06:24:40;3.50;;;1.50;;
53389;SDS011;39288;42.970;1.524;2023-03-23T06:25:41;3.47;;;1.90;;
53389;SDS011;39288;42.970;1.524;2023-03-23T06:26:42;4.27;;;1.70;;
53389;SDS011;39288;42.970;1.524;2023-03-23T06:28:48;3.47;;;1.83;;
53389;SDS011;39288;42.970;1.524;2023-03-23T06:29:49;4.45;;;2.10;;
53389;SDS011;39288;42.970;1.524;2023-03-23T06:30:49;2.10;;;1.50;;
53389;SDS011;39288;42.970;1.524;2023-03-23T06:31:51;2.43;;;1.57;;
53389;SDS011;39288;42.970;1.524;2023-03-23T06:32:54;3.47;;;1.80;;
53389;SDS011;39288;42.970;1.524;2023-03-23T06:33:55;2.45;;;1.55;;
53389;SDS011;39288;42.970;1.524;2023-03-23T06:34:56;3.13;;;1.73;;
53389;SDS011;39288;42.970;1.524;2023-03-23T06:35:57;2.83;;;1.60;;
53389;SDS011;39288;42.970;1.524;2023-03-23T06:36:58;3.17;;;1.70;;
53389;SDS011;39288;42.970;1.524;2023-03-23T06:37:58;3.37;;;1.63;;
53389;SDS011;39288;42.970;1.524;2023-03-23T06:39:02;3.10;;;1.73;;
53389;SDS011;39288;42.970;1.524;2023-03-23T06:40:04;3.50;;;2.10;;
53389;SDS011;39288;42.970;1.524;2023-03-23T06:41:10;6.93;;;2.60;;
53389;SDS011;39288;42.970;1.524;2023-03-23T06:42:11;3.20;;;1.77;;
53389;SDS011;39288;42.970;1.524;2023-03-23T06:43:12;3.28;;;1.80;;
53389;SDS011;39288;42.970;1.524;2023-03-23T06:44:13;3.10;;;2.03;;
53389;SDS011;39288;42.970;1.524;2023-03-23T06:45:14;5.07;;;2.07;;
53389;SDS011;39288;42.970;1.524;2023-03-23T06:46:14;4.00;;;1.90;;
53389;SDS011;39288;42.970;1.524;2023-03-23T06:47:15;4.00;;;1.80;;
53389;SDS011;39288;42.970;1.524;2023-03-23T06:48:15;2.90;;;1.87;;
53389;SDS011;39288;42.970;1.524;2023-03-23T06:49:16;3.20;;;1.70;;
53389;SDS011;39288;42.970;1.524;2023-03-23T06:50:16;3.37;;;1.87;;